Fairchild Air Force Base
KSKA : now visible

Airfield :











YOU CAN JOIN US ON...

 
LOGIN :

Register | Disclaimer

   EN    FR    IT 

 









Legend :    VFR   Marginal VFR   IFR   Intensive IFR   Very Intensive IFR
Visi :
Ceiling :
>= 8 km
>= 3000ft
5 to 8 km
1000 to 3000 ft
1500m to 5 km
500 to 1000 ft
800 to 1500m
200 to 500 ft
< 800m
< 200 ft
Symbols :   Thunderstorms  Fog  Heavy snow  Heavy precipitations  Wind > 20 kt






- Airport Elevation : 2461 ft


KSKA - Fairchild Air Force Base

CURRENT METAR :
  • 080358Z AUTO 03007KT 10SM SCT070 BKN095 15/11 A2995 RMK AO2 SLP140 T01540106 $

EXPIRED METARs :
  • 080258Z AUTO 02005KT 10SM SCT075 BKN100 18/05 A2993 RMK AO2 SLP131 T01840046 53003 $
  • 080158Z AUTO 06005KT 10SM OVC070 18/09 A2993 RMK AO2 SLP133 T01790093 $

TAF TAF KSKA
Valid from the 08 at 03:00 until the 09 at 09:00 UTC


080300Z 0803/0909 VRB06KT 9999 SCT070 SCT100 QNH2994INS
BECMG 0805/0806 24006KT 9999 SKC QNH2996INS
BECMG 0817/0818 23010G15KT 9999 SCT060 QNH2994INS WND 21009KT AFT 0903 TX23/0823Z TN08/0812Z
KZSE FIR / North America



MET'MAP, your aeronautical weather chart ! - Copyright ORBIFLY December 2007 - Disclaimer

ORBIFLY MET'MAP TEAM :

Programming & Development : Alexandra Zaïnal
Concept & original design : Baudouin d'Aumeries
Assistance for programming : Marc-Olivier Méhu
Technical & hardware support : Manuel Goepfert

Contact : metmap@orbifly.com




SOURCES & CREDITS :

   NOAA       Earth
Advisory